Time;durP1;ratioP1;P1;durP2;ratioP2;P2;SDS_P1;SDS_P2;PMS_P1;PMS_P2;Temp;Humidity;BMP_temperature;BMP_pressure;BME280_temperature;BME280_humidity;BME280_pressure;Samples;Min_cycle;Max_cycle;Signal;HPM_P1;HPM_P2
2021/06/15 00:00:41;;;;;;;8.23;6.95;;;12.00;99.90;;;;;;5015882;28;20103;-88
2021/06/15 00:03:08;;;;;;;9.68;7.10;;;11.90;99.90;;;;;;4998591;28;20057;-87
2021/06/15 00:05:35;;;;;;;12.02;7.13;;;11.80;99.90;;;;;;4999204;28;20502;-87
2021/06/15 00:08:02;;;;;;;12.23;7.72;;;11.60;99.90;;;;;;5015851;28;20046;-87
2021/06/15 00:10:30;;;;;;;10.80;7.88;;;11.50;99.90;;;;;;4998473;28;20112;-87
2021/06/15 00:12:57;;;;;;;12.82;7.55;;;11.50;99.90;;;;;;4997869;28;20052;-87
2021/06/15 00:15:25;;;;;;;9.68;8.20;;;11.50;99.90;;;;;;4997989;28;20049;-87
2021/06/15 00:17:53;;;;;;;13.45;8.45;;;11.40;99.90;;;;;;4998720;28;20062;-86
2021/06/15 00:20:21;;;;;;;14.63;8.73;;;11.40;99.90;;;;;;4998489;28;20124;-87
2021/06/15 00:22:47;;;;;;;10.55;7.47;;;11.60;99.90;;;;;;4997458;28;20495;-87
2021/06/15 00:25:15;;;;;;;13.90;8.25;;;11.60;99.90;;;;;;5015119;28;20121;-88
2021/06/15 00:27:42;;;;;;;10.30;8.07;;;11.60;99.90;;;;;;5015385;28;20053;-87
2021/06/15 00:30:12;;;;;;;11.63;7.80;;;11.70;99.90;;;;;;5015193;28;20057;-87
2021/06/15 00:32:39;;;;;;;12.18;7.85;;;11.60;99.90;;;;;;5015232;28;20049;-87
2021/06/15 00:35:06;;;;;;;9.02;7.60;;;11.60;99.90;;;;;;4997991;28;20046;-87
2021/06/15 00:37:33;;;;;;;11.38;7.57;;;11.60;99.90;;;;;;4997560;28;20049;-87
2021/06/15 00:39:59;;;;;;;10.85;7.60;;;11.50;99.90;;;;;;4997786;28;20217;-88
2021/06/15 00:42:26;;;;;;;11.45;7.63;;;11.50;99.90;;;;;;4997938;28;20060;-87
2021/06/15 00:44:53;;;;;;;11.20;8.65;;;11.30;99.90;;;;;;4998543;28;20045;-88
2021/06/15 00:47:21;;;;;;;10.23;7.70;;;11.30;99.90;;;;;;5033133;28;20372;-87
2021/06/15 00:49:49;;;;;;;10.32;6.95;;;11.30;99.90;;;;;;4999979;28;20057;-87
2021/06/15 00:52:15;;;;;;;11.30;8.43;;;11.40;99.90;;;;;;4997649;28;20056;-88
2021/06/15 00:54:43;;;;;;;10.32;8.27;;;11.30;99.90;;;;;;4997771;28;20141;-87
2021/06/15 00:57:18;;;;;;;13.15;7.97;;;11.30;99.90;;;;;;4997521;28;20065;-88
2021/06/15 00:59:45;;;;;;;8.35;7.55;;;11.20;99.90;;;;;;5014896;28;20046;-88
2021/06/15 01:02:12;;;;;;;12.00;7.93;;;11.10;99.90;;;;;;5014719;28;20053;-88
2021/06/15 01:04:39;;;;;;;9.18;7.53;;;11.10;99.90;;;;;;4997611;28;20129;-88
2021/06/15 01:07:11;;;;;;;9.15;8.18;;;11.10;99.90;;;;;;4997424;28;20149;-88
2021/06/15 01:09:46;;;;;;;15.27;8.77;;;11.00;99.90;;;;;;5015055;28;20056;-87
2021/06/15 01:12:32;;;;;;;9.05;8.10;;;11.00;99.90;;;;;;4997597;28;20049;-87
2021/06/15 01:15:05;;;;;;;16.60;9.00;;;10.90;99.90;;;;;;4997508;28;20053;-88
2021/06/15 01:17:46;;;;;;;12.82;7.95;;;10.80;99.90;;;;;;4997470;28;20399;-88
2021/06/15 01:20:20;;;;;;;12.13;8.63;;;10.80;99.90;;;;;;4997301;28;20046;-88
2021/06/15 01:23:06;;;;;;;11.23;8.75;;;10.80;99.90;;;;;;5014991;28;20056;-88
2021/06/15 01:25:48;;;;;;;13.30;8.85;;;10.70;99.90;;;;;;4997425;28;20042;-87
2021/06/15 01:28:33;;;;;;;12.60;8.90;;;10.70;99.90;;;;;;5014461;28;20081;-88
2021/06/15 01:31:29;;;;;;;9.85;8.38;;;10.70;99.90;;;;;;4997290;28;20046;-87
2021/06/15 01:34:03;;;;;;;12.32;8.32;;;10.70;99.90;;;;;;5014334;28;20557;-87
2021/06/15 01:36:42;;;;;;;13.73;9.38;;;10.70;99.90;;;;;;4996673;28;20046;-87
2021/06/15 01:39:15;;;;;;;11.63;9.32;;;10.60;99.90;;;;;;5014202;28;20058;-86
2021/06/15 01:41:48;;;;;;;13.10;9.40;;;10.60;99.90;;;;;;4997259;28;20134;-88
2021/06/15 01:44:17;;;;;;;12.77;8.35;;;10.70;99.90;;;;;;5014641;28;20081;-88
2021/06/15 01:46:50;;;;;;;16.77;9.63;;;10.70;99.90;;;;;;5003601;28;20137;-88
2021/06/15 01:49:20;;;;;;;11.30;9.02;;;10.60;99.90;;;;;;4996635;28;20557;-88
2021/06/15 01:51:48;;;;;;;13.20;9.35;;;10.50;99.90;;;;;;4997447;28;20056;-87
2021/06/15 01:54:22;;;;;;;11.32;8.38;;;10.60;99.90;;;;;;4997312;28;20054;-88
2021/06/15 01:56:51;;;;;;;12.52;9.15;;;10.50;99.90;;;;;;4996768;28;20049;-87
2021/06/15 01:59:20;;;;;;;12.15;8.65;;;10.50;99.90;;;;;;4996900;28;20058;-88
2021/06/15 02:01:51;;;;;;;14.40;9.05;;;10.50;99.90;;;;;;4996637;28;20050;-88
2021/06/15 02:04:18;;;;;;;12.25;9.43;;;10.40;99.90;;;;;;4999643;28;20050;-89
2021/06/15 02:06:46;;;;;;;12.88;9.10;;;10.40;99.90;;;;;;5028875;28;20125;-88
2021/06/15 02:09:14;;;;;;;15.77;10.63;;;10.40;99.90;;;;;;4998589;28;20053;-88
2021/06/15 02:11:42;;;;;;;12.73;9.68;;;10.40;99.90;;;;;;4996792;28;20110;-88
2021/06/15 02:14:17;;;;;;;13.43;9.13;;;10.30;99.90;;;;;;4996472;28;20056;-87
2021/06/15 02:16:50;;;;;;;14.25;10.13;;;10.30;99.90;;;;;;4996479;28;20054;-88
2021/06/15 02:19:22;;;;;;;11.73;10.13;;;10.20;99.90;;;;;;5013597;28;20041;-87
2021/06/15 02:21:56;;;;;;;13.75;9.45;;;10.20;99.90;;;;;;4996495;28;20557;-88
2021/06/15 02:24:27;;;;;;;11.90;10.20;;;10.10;99.90;;;;;;4996415;28;20068;-87
2021/06/15 02:26:54;;;;;;;14.50;9.27;;;10.10;99.90;;;;;;4996069;28;20049;-88
2021/06/15 02:29:21;;;;;;;11.90;9.50;;;10.10;99.90;;;;;;5013721;28;20133;-88
2021/06/15 02:31:56;;;;;;;16.00;9.48;;;10.10;99.90;;;;;;4996634;28;20077;-88
2021/06/15 02:34:26;;;;;;;13.45;9.65;;;10.10;99.90;;;;;;5013678;28;20050;-88
2021/06/15 02:36:53;;;;;;;12.25;10.15;;;10.20;99.90;;;;;;5013510;28;20058;-88
2021/06/15 02:39:26;;;;;;;13.68;10.27;;;10.20;99.90;;;;;;4996205;28;20046;-88
2021/06/15 02:41:55;;;;;;;17.50;9.57;;;10.20;99.90;;;;;;4996512;28;20474;-88
2021/06/15 02:44:26;;;;;;;12.45;9.82;;;10.20;99.90;;;;;;4996464;28;20501;-88
2021/06/15 02:46:56;;;;;;;18.05;9.85;;;10.10;99.90;;;;;;5000283;28;20057;-87
2021/06/15 02:49:31;;;;;;;20.75;10.45;;;10.10;99.90;;;;;;4999942;28;20064;-87
2021/06/15 02:52:18;;;;;;;12.55;9.25;;;10.00;99.90;;;;;;5000280;28;20052;-87
2021/06/15 02:54:53;;;;;;;14.57;9.90;;;10.10;99.90;;;;;;5017296;28;20224;-87
2021/06/15 02:57:21;;;;;;;12.90;9.52;;;10.20;99.90;;;;;;4999971;28;20050;-88
2021/06/15 02:59:48;;;;;;;11.60;9.55;;;10.20;99.90;;;;;;5000294;28;20560;-88
2021/06/15 03:02:15;;;;;;;16.23;9.57;;;10.10;99.90;;;;;;5000045;28;20136;-88
2021/06/15 03:04:46;;;;;;;14.00;9.75;;;10.00;99.90;;;;;;5017791;28;20050;-88
2021/06/15 03:07:14;;;;;;;15.05;10.90;;;10.00;99.90;;;;;;5000296;28;20102;-88
2021/06/15 03:09:41;;;;;;;19.42;11.80;;;9.90;99.90;;;;;;5000570;28;20046;-88
2021/06/15 03:12:13;;;;;;;14.73;11.02;;;9.80;99.90;;;;;;5000546;28;20129;-88
2021/06/15 03:14:44;;;;;;;15.38;11.70;;;9.90;99.90;;;;;;5017778;28;20458;-88
2021/06/15 03:17:12;;;;;;;17.75;13.05;;;9.80;99.90;;;;;;5000225;28;20077;-88
2021/06/15 03:19:39;;;;;;;20.25;12.75;;;9.80;99.90;;;;;;5000028;28;20087;-88
2021/06/15 03:22:14;;;;;;;14.57;11.98;;;9.80;99.90;;;;;;5000882;28;20451;-88
2021/06/15 03:24:51;;;;;;;20.50;11.68;;;9.90;99.90;;;;;;5017495;28;20077;-88
2021/06/15 03:27:29;;;;;;;15.93;11.63;;;9.90;99.90;;;;;;5002565;28;20068;-88
2021/06/15 03:29:56;;;;;;;17.20;12.50;;;9.80;99.90;;;;;;5000167;28;20132;-88
2021/06/15 03:32:25;;;;;;;21.75;14.45;;;9.80;99.90;;;;;;4999767;28;20042;-88
2021/06/15 03:34:54;;;;;;;20.25;12.13;;;9.90;99.90;;;;;;4999819;28;20498;-88
2021/06/15 03:37:25;;;;;;;17.90;12.90;;;9.90;99.90;;;;;;4999673;28;20196;-88
2021/06/15 03:39:54;;;;;;;17.92;12.27;;;9.90;99.90;;;;;;5017077;28;20068;-88
2021/06/15 03:42:37;;;;;;;16.70;12.98;;;9.90;99.90;;;;;;4999589;28;20133;-88
2021/06/15 03:45:06;;;;;;;21.27;12.30;;;10.00;99.90;;;;;;4999493;28;20085;-87
2021/06/15 03:47:36;;;;;;;15.80;11.57;;;10.00;99.90;;;;;;4999344;28;20054;-88
2021/06/15 03:50:04;;;;;;;20.35;13.68;;;10.10;99.90;;;;;;5016764;28;20407;-88
2021/06/15 03:52:39;;;;;;;14.55;11.88;;;10.10;99.90;;;;;;4999329;28;20517;-88
2021/06/15 03:55:09;;;;;;;17.02;12.85;;;10.20;99.90;;;;;;4999303;28;20054;-88
2021/06/15 03:57:43;;;;;;;18.50;11.60;;;10.10;99.90;;;;;;4998283;28;20113;-87
2021/06/15 04:00:18;;;;;;;17.13;12.13;;;10.10;99.90;;;;;;4999395;28;20129;-88
2021/06/15 04:02:50;;;;;;;17.65;12.93;;;10.20;99.90;;;;;;4999269;28;20053;-88
2021/06/15 04:05:20;;;;;;;16.98;12.20;;;10.20;99.90;;;;;;4999576;28;20570;-88
2021/06/15 04:07:47;;;;;;;16.90;12.07;;;10.30;99.90;;;;;;4999191;28;20050;-88
2021/06/15 04:10:16;;;;;;;19.08;12.13;;;10.40;99.90;;;;;;5016473;28;20394;-87
2021/06/15 04:12:45;;;;;;;16.77;12.48;;;10.50;99.90;;;;;;5016478;28;20052;-88
2021/06/15 04:15:13;;;;;;;17.50;13.10;;;10.60;99.90;;;;;;4999168;28;20053;-87
2021/06/15 04:17:45;;;;;;;17.85;11.73;;;10.70;99.90;;;;;;4999009;28;20418;-88
2021/06/15 04:20:14;;;;;;;19.90;12.47;;;10.70;99.90;;;;;;4999105;28;20056;-88
2021/06/15 04:22:46;;;;;;;15.75;11.25;;;10.80;99.90;;;;;;4998902;28;20509;-88
2021/06/15 04:25:21;;;;;;;18.33;11.57;;;10.90;99.90;;;;;;5015773;28;20421;-88
2021/06/15 04:27:49;;;;;;;15.70;11.73;;;11.00;99.90;;;;;;4998930;28;20140;-88
2021/06/15 04:30:19;;;;;;;14.27;12.32;;;11.10;99.90;;;;;;5016179;28;20049;-88
2021/06/15 04:32:57;;;;;;;14.88;11.27;;;11.20;99.90;;;;;;5001855;28;20519;-88
2021/06/15 04:35:57;;;;;;;18.30;11.93;;;11.30;99.90;;;;;;4998749;28;20057;-87
2021/06/15 04:38:33;;;;;;;16.30;11.10;;;11.60;99.90;;;;;;4964860;28;20049;-87
2021/06/15 04:41:14;;;;;;;13.10;10.80;;;11.60;99.90;;;;;;5010859;28;20497;-88
2021/06/15 04:44:07;;;;;;;16.88;11.00;;;11.70;99.90;;;;;;5032173;28;20533;-87
2021/06/15 04:46:44;;;;;;;12.50;10.30;;;11.90;99.90;;;;;;5019039;28;20490;-87
2021/06/15 04:49:27;;;;;;;13.57;9.77;;;12.10;99.90;;;;;;5017764;28;20518;-87
2021/06/15 04:51:57;;;;;;;11.25;8.05;;;12.40;99.90;;;;;;5035538;28;20045;-87
2021/06/15 04:54:31;;;;;;;13.10;6.75;;;12.90;99.90;;;;;;5017829;28;20053;-87
2021/06/15 04:57:02;;;;;;;7.13;6.00;;;13.30;99.90;;;;;;5017823;28;20505;-87
2021/06/15 04:59:30;;;;;;;8.18;6.13;;;13.50;99.90;;;;;;5017363;28;20057;-87
2021/06/15 05:01:58;;;;;;;6.93;5.32;;;13.70;99.90;;;;;;5017465;28;20084;-85
2021/06/15 05:04:27;;;;;;;6.78;4.97;;;13.80;99.90;;;;;;5017730;28;20052;-88
2021/06/15 05:06:54;;;;;;;10.18;5.20;;;13.90;99.90;;;;;;5017525;28;20081;-87
2021/06/15 05:09:25;;;;;;;4.80;4.32;;;14.30;99.90;;;;;;5017132;28;20045;-87
2021/06/15 05:11:54;;;;;;;6.75;4.28;;;15.60;99.90;;;;;;5017104;28;20656;-88
2021/06/15 05:14:25;;;;;;;7.93;4.40;;;17.10;99.90;;;;;;5017730;28;20060;-88
2021/06/15 05:16:53;;;;;;;8.75;4.30;;;18.70;99.90;;;;;;5017286;28;20482;-86
2021/06/15 05:19:22;;;;;;;25.73;9.07;;;20.30;99.90;;;;;;5017806;28;20056;-85
2021/06/15 05:22:14;;;;;;;20.27;8.60;;;21.10;99.90;;;;;;5017205;28;20045;-88
2021/06/15 05:24:49;;;;;;;39.05;11.90;;;21.50;99.90;;;;;;5032099;28;20057;-88
2021/06/15 05:27:17;;;;;;;41.00;13.60;;;22.40;99.90;;;;;;5012198;28;20488;-87
2021/06/15 05:29:44;;;;;;;47.03;17.38;;;23.50;99.90;;;;;;5013616;28;20132;-86
2021/06/15 05:32:11;;;;;;;24.10;10.15;;;23.90;99.90;;;;;;5013636;28;20062;-87
2021/06/15 05:34:38;;;;;;;19.05;6.03;;;24.70;99.90;;;;;;5013791;28;20490;-86
2021/06/15 05:37:06;;;;;;;15.25;5.72;;;25.60;99.90;;;;;;5013494;28;20056;-87
2021/06/15 05:39:34;;;;;;;8.52;3.85;;;25.90;99.00;;;;;;5013885;28;20054;-87
2021/06/15 05:42:01;;;;;;;3.13;2.83;;;25.40;99.60;;;;;;5013815;28;20062;-87
2021/06/15 05:44:28;;;;;;;2.95;2.47;;;25.90;97.70;;;;;;5013801;28;20137;-87
2021/06/15 05:46:55;;;;;;;4.38;3.25;;;26.60;95.20;;;;;;5014548;28;20046;-86
2021/06/15 05:49:21;;;;;;;7.35;2.95;;;26.70;94.70;;;;;;5033260;28;20063;-87
2021/06/15 05:51:52;;;;;;;3.83;2.80;;;26.20;95.90;;;;;;5016715;28;20498;-87
2021/06/15 05:54:19;;;;;;;6.70;2.85;;;27.00;93.50;;;;;;5017114;28;20067;-86
2021/06/15 05:56:46;;;;;;;5.25;2.50;;;26.90;93.40;;;;;;5016887;28;20059;-86
2021/06/15 05:59:13;;;;;;;3.22;2.92;;;27.60;91.00;;;;;;5017435;28;20060;-86
2021/06/15 06:01:41;;;;;;;3.78;3.08;;;26.90;91.40;;;;;;5052019;28;20089;-87
2021/06/15 06:04:10;;;;;;;6.18;3.22;;;26.40;93.20;;;;;;5039968;28;20558;-86
2021/06/15 06:09:23;;;;;;;10.98;4.93;;;27.10;92.00;;;;;;5033902;28;20053;-86
2021/06/15 06:11:49;;;;;;;6.00;3.65;;;28.00;90.50;;;;;;5016481;28;20053;-87
2021/06/15 06:14:16;;;;;;;16.45;9.10;;;27.50;90.50;;;;;;5033683;28;20132;-87
2021/06/15 06:16:44;;;;;;;10.95;6.03;;;28.10;88.90;;;;;;5016574;28;20490;-87
2021/06/15 06:19:14;;;;;;;10.73;5.03;;;28.50;88.50;;;;;;5015803;28;20148;-87
2021/06/15 06:21:43;;;;;;;18.33;6.80;;;28.30;87.30;;;;;;5016297;28;20053;-87
2021/06/15 06:24:12;;;;;;;4.80;3.25;;;28.00;86.40;;;;;;5016363;28;20041;-86
2021/06/15 06:26:39;;;;;;;9.90;3.22;;;27.90;88.40;;;;;;5016542;28;20053;-86
2021/06/15 06:29:06;;;;;;;5.78;3.97;;;27.50;89.80;;;;;;5016174;28;20417;-86
2021/06/15 06:31:33;;;;;;;10.23;4.97;;;28.30;87.70;;;;;;5016502;28;20080;-87
2021/06/15 06:34:00;;;;;;;20.52;8.98;;;29.40;85.30;;;;;;5016569;28;20096;-87
2021/06/15 06:36:27;;;;;;;12.88;6.53;;;30.60;79.50;;;;;;5016348;28;20413;-87
2021/06/15 06:38:54;;;;;;;13.65;6.35;;;30.60;77.10;;;;;;5015978;28;20046;-87
2021/06/15 06:41:22;;;;;;;16.52;6.65;;;30.90;77.40;;;;;;5016142;28;20490;-85
2021/06/15 06:43:49;;;;;;;22.65;7.65;;;31.90;73.00;;;;;;5016158;28;20049;-87
2021/06/15 06:46:16;;;;;;;20.35;7.32;;;32.50;70.60;;;;;;5016117;28;20413;-86
2021/06/15 06:48:43;;;;;;;18.15;8.20;;;32.30;68.40;;;;;;5012561;28;20053;-87
2021/06/15 06:51:10;;;;;;;27.63;8.40;;;32.50;67.40;;;;;;5012705;28;20048;-86
2021/06/15 06:53:37;;;;;;;15.15;6.15;;;32.10;68.10;;;;;;5013917;28;20056;-86
2021/06/15 06:56:07;;;;;;;25.80;8.65;;;32.30;68.40;;;;;;5012899;28;20129;-87
2021/06/15 06:58:34;;;;;;;36.67;8.90;;;32.60;66.00;;;;;;5012915;28;20050;-86
2021/06/15 07:01:02;;;;;;;29.63;8.65;;;32.00;65.60;;;;;;5012509;28;20501;-86
2021/06/15 07:03:30;;;;;;;27.90;7.68;;;32.30;66.70;;;;;;5012787;28;20411;-87
2021/06/15 07:05:57;;;;;;;16.23;6.80;;;32.20;66.10;;;;;;5012640;28;20050;-86
2021/06/15 07:08:27;;;;;;;19.40;6.50;;;32.10;66.30;;;;;;5012671;28;20586;-86
2021/06/15 07:10:53;;;;;;;19.45;5.60;;;32.70;66.10;;;;;;5012575;28;20048;-86
2021/06/15 07:13:20;;;;;;;12.00;4.90;;;32.70;65.40;;;;;;5013096;28;20136;-86
2021/06/15 07:15:47;;;;;;;11.93;4.68;;;33.70;62.80;;;;;;5012367;28;20068;-86
2021/06/15 07:18:15;;;;;;;16.83;4.53;;;33.30;63.70;;;;;;5013197;28;20054;-87
2021/06/15 07:20:42;;;;;;;23.73;5.57;;;33.80;62.00;;;;;;5032695;28;20069;-87
2021/06/15 07:23:09;;;;;;;7.32;3.33;;;33.10;65.00;;;;;;5024795;28;20148;-86
2021/06/15 07:25:36;;;;;;;7.70;3.33;;;33.40;63.80;;;;;;5013196;28;20080;-87
2021/06/15 07:28:03;;;;;;;11.13;3.50;;;34.50;61.60;;;;;;5012632;28;20053;-89
2021/06/15 07:30:29;;;;;;;7.95;2.90;;;35.10;59.10;;;;;;5012532;28;20050;-87
2021/06/15 07:32:57;;;;;;;5.13;3.20;;;35.20;58.40;;;;;;5015823;28;20050;-87
2021/06/15 07:35:26;;;;;;;6.97;3.10;;;35.50;58.00;;;;;;5015924;28;20042;-87
2021/06/15 07:37:56;;;;;;;8.85;3.33;;;35.10;57.90;;;;;;5015864;28;20045;-86
2021/06/15 07:40:24;;;;;;;16.50;4.25;;;35.30;58.00;;;;;;5015476;28;20509;-87
2021/06/15 07:42:53;;;;;;;13.77;3.47;;;35.50;59.30;;;;;;5015902;28;20042;-86
2021/06/15 07:45:21;;;;;;;7.95;3.08;;;35.50;59.70;;;;;;5016696;28;20063;-87
2021/06/15 07:47:48;;;;;;;6.75;3.60;;;34.90;58.80;;;;;;5015824;28;20426;-86
2021/06/15 07:50:16;;;;;;;9.40;4.10;;;34.80;59.50;;;;;;5016724;28;20076;-88
2021/06/15 07:52:44;;;;;;;6.45;3.15;;;34.50;61.40;;;;;;5015288;28;20050;-86
2021/06/15 07:55:12;;;;;;;13.70;3.45;;;34.40;59.10;;;;;;5015237;28;20058;-87
2021/06/15 07:57:40;;;;;;;3.08;2.33;;;34.10;59.90;;;;;;5015132;28;20056;-87
2021/06/15 08:00:09;;;;;;;5.50;2.22;;;33.90;58.70;;;;;;5014527;28;20050;-86
2021/06/15 08:02:36;;;;;;;7.60;2.72;;;34.30;59.30;;;;;;5016619;28;20387;-86
2021/06/15 08:05:04;;;;;;;5.47;2.35;;;35.10;57.20;;;;;;5015267;28;20056;-88
2021/06/15 08:07:30;;;;;;;5.65;2.00;;;36.10;56.60;;;;;;5015231;28;20483;-87
2021/06/15 08:09:57;;;;;;;2.03;1.83;;;36.20;54.50;;;;;;5015304;28;20558;-87
2021/06/15 08:12:24;;;;;;;3.78;1.48;;;34.90;52.90;;;;;;5016214;28;20129;-89
2021/06/15 08:14:55;;;;;;;3.15;1.60;;;35.20;54.40;;;;;;5015438;28;20066;-86
2021/06/15 08:17:22;;;;;;;2.05;1.60;;;34.90;54.50;;;;;;5015159;28;20050;-87
2021/06/15 08:19:50;;;;;;;2.97;1.50;;;35.80;53.50;;;;;;5014772;28;20050;-87
2021/06/15 08:22:17;;;;;;;2.42;1.33;;;35.10;52.60;;;;;;5014974;28;20362;-86
2021/06/15 08:24:43;;;;;;;1.58;1.45;;;35.70;53.00;;;;;;5015299;28;20417;-86
2021/06/15 08:27:11;;;;;;;2.28;1.40;;;36.30;53.70;;;;;;5015120;28;20050;-87
2021/06/15 08:29:38;;;;;;;2.25;1.50;;;37.20;52.10;;;;;;5014962;28;20493;-86
2021/06/15 08:32:05;;;;;;;1.80;1.30;;;38.20;50.80;;;;;;5014118;28;20050;-89
2021/06/15 08:34:34;;;;;;;1.60;1.45;;;37.80;49.00;;;;;;5014463;28;20081;-86
2021/06/15 08:37:02;;;;;;;5.38;1.67;;;37.10;48.80;;;;;;5014979;28;20050;-87
2021/06/15 08:39:29;;;;;;;1.92;1.42;;;36.70;50.70;;;;;;5032797;28;20084;-88
2021/06/15 08:41:55;;;;;;;7.53;1.60;;;37.30;49.30;;;;;;5030061;28;20073;-87
2021/06/15 08:44:22;;;;;;;3.28;1.48;;;37.00;48.70;;;;;;5013936;28;20414;-86
2021/06/15 08:46:49;;;;;;;5.28;1.80;;;36.60;50.60;;;;;;5014580;28;20046;-88
2021/06/15 08:49:16;;;;;;;2.97;1.42;;;37.10;50.10;;;;;;5033376;28;20061;-88
2021/06/15 08:51:44;;;;;;;2.15;1.40;;;36.30;49.00;;;;;;5038023;28;20053;-88
2021/06/15 08:54:15;;;;;;;2.90;1.48;;;36.60;51.10;;;;;;5017907;28;20058;-86
2021/06/15 08:56:42;;;;;;;2.13;1.45;;;37.70;48.90;;;;;;5034771;28;20052;-89
2021/06/15 08:59:22;;;;;;;2.88;1.52;;;38.00;49.50;;;;;;5017305;28;20049;-88
2021/06/15 09:01:52;;;;;;;6.32;1.80;;;38.10;48.00;;;;;;5016479;28;20401;-91
2021/06/15 09:04:19;;;;;;;1.73;1.50;;;37.50;47.70;;;;;;5017468;28;20137;-88
2021/06/15 09:06:47;;;;;;;1.88;1.25;;;38.00;47.40;;;;;;5017943;28;20053;-87
2021/06/15 09:09:15;;;;;;;1.83;1.33;;;37.70;45.30;;;;;;5035157;28;20060;-90
2021/06/15 09:11:59;;;;;;;2.70;1.40;;;38.40;47.20;;;;;;5017787;28;20482;-88
2021/06/15 09:14:44;;;;;;;1.75;1.65;;;37.70;46.70;;;;;;5017400;28;20049;-89
2021/06/15 09:17:29;;;;;;;2.58;1.50;;;37.20;47.10;;;;;;5016965;28;20089;-90
2021/06/15 09:20:09;;;;;;;4.80;1.52;;;37.80;46.40;;;;;;5017189;28;20049;-88
2021/06/15 09:22:36;;;;;;;2.03;1.10;;;37.50;46.20;;;;;;5017106;28;20486;-88
2021/06/15 09:25:06;;;;;;;2.83;1.60;;;37.60;48.10;;;;;;5016597;28;20049;-86
2021/06/15 09:27:34;;;;;;;4.28;1.40;;;38.40;46.00;;;;;;5016877;28;20133;-87
2021/06/15 09:30:05;;;;;;;1.50;1.40;;;38.10;45.60;;;;;;5016956;28;20124;-87
2021/06/15 09:32:37;;;;;;;2.33;1.40;;;38.70;46.20;;;;;;5017938;28;20049;-87
2021/06/15 09:35:09;;;;;;;2.13;1.67;;;37.80;45.90;;;;;;5017082;28;20077;-87
2021/06/15 09:37:39;;;;;;;2.30;1.70;;;37.10;46.30;;;;;;5023699;28;20149;-88
2021/06/15 09:40:32;;;;;;;1.77;1.40;;;35.70;47.70;;;;;;5017304;28;20136;-92
2021/06/15 09:43:12;;;;;;;2.38;1.20;;;36.00;48.30;;;;;;5004982;28;20049;-88
2021/06/15 09:45:46;;;;;;;2.63;1.40;;;35.80;47.60;;;;;;5017457;28;20127;-88
2021/06/15 09:48:26;;;;;;;37.70;3.03;;;37.90;46.90;;;;;;5017060;28;20127;-87
2021/06/15 09:51:00;;;;;;;20.88;2.05;;;38.90;46.40;;;;;;5017814;28;20057;-89
2021/06/15 09:53:28;;;;;;;5.70;1.60;;;38.50;44.70;;;;;;5017410;28;20466;-87
2021/06/15 09:56:00;;;;;;;4.13;1.48;;;39.30;43.70;;;;;;5017494;28;20481;-87
2021/06/15 09:58:42;;;;;;;20.27;2.78;;;39.00;43.20;;;;;;5029632;28;20093;-88
2021/06/15 10:01:30;;;;;;;2.88;1.30;;;39.60;45.00;;;;;;5038603;28;20053;-90
2021/06/15 10:04:17;;;;;;;3.53;1.20;;;40.30;43.10;;;;;;5016721;28;20057;-91
2021/06/15 10:06:58;;;;;;;3.85;1.50;;;40.60;44.00;;;;;;5018665;28;20466;-89
2021/06/15 10:09:30;;;;;;;2.83;1.67;;;40.60;42.90;;;;;;5018380;28;20132;-91
2021/06/15 10:12:05;;;;;;;1.42;1.33;;;38.90;42.90;;;;;;5016918;28;20166;-86
2021/06/15 10:14:34;;;;;;;1.92;1.10;;;40.80;44.00;;;;;;5016790;28;20406;-87
2021/06/15 10:17:01;;;;;;;1.98;1.35;;;42.40;42.80;;;;;;5009167;28;20137;-88
2021/06/15 10:19:28;;;;;;;3.42;1.38;;;41.60;42.00;;;;;;5016527;28;20092;-87
2021/06/15 10:21:56;;;;;;;3.85;1.60;;;41.10;41.70;;;;;;5016736;28;20087;-90
2021/06/15 10:24:24;;;;;;;2.65;1.35;;;41.10;42.60;;;;;;5017239;28;20088;-87
2021/06/15 10:27:06;;;;;;;2.25;1.40;;;40.20;43.10;;;;;;5018463;28;20049;-87
2021/06/15 10:29:34;;;;;;;1.90;1.50;;;42.80;42.90;;;;;;5016473;28;20053;-88
2021/06/15 10:32:14;;;;;;;2.33;1.30;;;42.40;40.20;;;;;;5016566;28;20071;-86
2021/06/15 10:35:01;;;;;;;1.30;1.20;;;42.40;40.60;;;;;;5016678;28;20046;-88
2021/06/15 10:37:31;;;;;;;1.73;1.33;;;41.40;40.60;;;;;;5016651;28;20095;-87
2021/06/15 10:40:04;;;;;;;2.17;1.48;;;41.20;41.10;;;;;;5014700;28;20132;-84
2021/06/15 10:42:32;;;;;;;1.65;1.25;;;42.70;39.20;;;;;;5015968;28;20128;-84
2021/06/15 10:45:20;;;;;;;3.88;1.80;;;42.10;38.20;;;;;;5032702;28;20049;-84
2021/06/15 10:48:05;;;;;;;2.72;1.55;;;40.50;40.90;;;;;;5015496;28;20061;-85
2021/06/15 10:50:36;;;;;;;3.88;1.40;;;40.80;40.80;;;;;;5032949;28;20053;-84
2021/06/15 10:53:05;;;;;;;4.78;1.75;;;40.60;40.90;;;;;;5015373;28;20058;-88
2021/06/15 10:55:44;;;;;;;1.45;1.35;;;40.90;41.90;;;;;;5015752;28;20042;-86
2021/06/15 10:58:12;;;;;;;1.40;1.30;;;41.20;40.90;;;;;;5015894;28;20053;-87
2021/06/15 11:00:47;;;;;;;1.95;1.17;;;41.40;40.40;;;;;;5015805;28;20049;-86
2021/06/15 11:03:18;;;;;;;2.63;1.30;;;42.60;39.60;;;;;;5015386;28;20058;-86
2021/06/15 11:05:47;;;;;;;5.82;1.48;;;43.10;39.60;;;;;;5015814;28;20045;-90
2021/06/15 11:08:17;;;;;;;2.30;1.50;;;43.30;38.60;;;;;;5020330;28;20128;-89
2021/06/15 11:10:57;;;;;;;2.08;1.25;;;42.20;39.20;;;;;;5021933;28;20045;-87
2021/06/15 11:13:39;;;;;;;3.78;1.58;;;40.10;40.10;;;;;;5020269;28;20049;-87
2021/06/15 11:16:17;;;;;;;3.35;1.65;;;39.30;42.20;;;;;;5021350;28;20058;-87
2021/06/15 11:18:44;;;;;;;2.03;1.40;;;37.50;41.90;;;;;;5035488;28;20048;-89
2021/06/15 11:21:27;;;;;;;7.20;1.45;;;37.10;43.70;;;;;;5059638;28;20067;-87
2021/06/15 11:24:20;;;;;;;4.30;1.10;;;37.50;43.60;;;;;;5037079;28;20247;-87
2021/06/15 11:26:48;;;;;;;1.60;1.27;;;37.00;43.40;;;;;;5019298;28;20141;-90
2021/06/15 11:29:37;;;;;;;3.95;1.38;;;37.40;42.80;;;;;;5036696;28;20059;-92
2021/06/15 11:32:18;;;;;;;3.70;1.33;;;36.40;44.70;;;;;;5022723;28;20041;-85
2021/06/15 11:35:03;;;;;;;4.05;1.83;;;36.20;45.40;;;;;;5019299;28;20053;-87
2021/06/15 11:37:36;;;;;;;3.63;1.60;;;36.00;44.80;;;;;;5019313;28;20132;-88
2021/06/15 11:40:31;;;;;;;1.63;1.52;;;35.70;45.50;;;;;;5036266;28;20049;-87
2021/06/15 11:43:07;;;;;;;2.70;1.60;;;34.60;45.40;;;;;;5037107;28;20081;-88
2021/06/15 11:45:36;;;;;;;2.72;1.70;;;34.20;47.30;;;;;;5036579;28;20049;-86
2021/06/15 11:48:20;;;;;;;3.78;1.50;;;33.70;48.50;;;;;;5034718;28;20060;-88
2021/06/15 11:50:54;;;;;;;1.60;1.50;;;33.10;48.50;;;;;;5019085;28;20096;-85
2021/06/15 11:53:25;;;;;;;3.10;1.50;;;33.30;49.70;;;;;;5018432;28;20057;-84
2021/06/15 11:55:53;;;;;;;6.45;1.85;;;33.30;49.30;;;;;;5018569;28;20481;-86
2021/06/15 11:58:23;;;;;;;3.38;1.58;;;32.80;49.30;;;;;;5018697;28;20429;-86
2021/06/15 12:00:52;;;;;;;2.67;1.33;;;32.20;50.80;;;;;;5018449;28;20059;-86
2021/06/15 12:03:23;;;;;;;2.55;1.60;;;32.60;51.30;;;;;;5018586;28;20406;-86
2021/06/15 12:05:53;;;;;;;5.20;1.60;;;33.10;50.10;;;;;;5018301;28;20056;-87
2021/06/15 12:08:21;;;;;;;4.00;1.88;;;33.80;50.50;;;;;;5018954;28;20136;-86
2021/06/15 12:10:50;;;;;;;3.80;1.73;;;33.50;48.40;;;;;;5035750;28;20060;-89
2021/06/15 12:13:20;;;;;;;2.20;1.45;;;33.40;48.90;;;;;;5018552;28;20052;-91
2021/06/15 12:15:53;;;;;;;4.97;1.70;;;33.10;48.10;;;;;;5018633;28;20125;-91
2021/06/15 12:18:23;;;;;;;;;;;33.20;48.90;;;;;;5017723;28;20060;-89
2021/06/15 12:20:54;;;;;;;5.18;1.50;;;32.90;50.00;;;;;;5017937;28;19931;-85
2021/06/15 12:23:28;;;;;;;3.10;1.80;;;33.20;49.20;;;;;;5018454;28;20409;-86
2021/06/15 12:26:06;;;;;;;2.53;1.58;;;32.90;50.00;;;;;;5014354;28;20177;-89
2021/06/15 12:28:36;;;;;;;1.70;1.40;;;33.10;50.90;;;;;;5012550;28;20054;-85
2021/06/15 12:31:19;;;;;;;3.03;1.73;;;32.90;49.90;;;;;;5017915;28;20469;-89
2021/06/15 12:33:50;;;;;;;3.35;1.55;;;33.20;50.80;;;;;;5035979;28;20085;-89
2021/06/15 12:36:21;;;;;;;2.30;1.48;;;33.20;49.80;;;;;;5018886;28;20059;-90
2021/06/15 12:38:52;;;;;;;2.83;1.50;;;33.00;48.30;;;;;;5030684;28;20060;-87
2021/06/15 12:41:25;;;;;;;1.55;1.45;;;33.10;50.30;;;;;;5025545;28;20530;-86
2021/06/15 12:43:52;;;;;;;2.05;1.30;;;33.20;49.40;;;;;;5018073;28;20055;-86
2021/06/15 12:46:31;;;;;;;2.60;1.58;;;33.30;49.80;;;;;;5035224;28;20045;-86
2021/06/15 12:49:04;;;;;;;2.00;1.30;;;33.10;49.60;;;;;;5035141;28;20112;-86
2021/06/15 12:51:47;;;;;;;1.55;1.45;;;32.90;50.80;;;;;;5018369;28;20051;-85
2021/06/15 12:54:37;;;;;;;2.85;1.60;;;32.80;49.20;;;;;;5033923;28;20053;-86
2021/06/15 12:57:18;;;;;;;2.90;1.70;;;32.60;49.70;;;;;;5017504;28;20429;-85
2021/06/15 12:59:59;;;;;;;2.35;1.83;;;32.40;49.70;;;;;;5017509;28;20433;-86
2021/06/15 13:02:27;;;;;;;3.85;1.38;;;32.60;50.60;;;;;;5017538;28;20084;-91
2021/06/15 13:05:03;;;;;;;3.47;1.40;;;32.60;50.70;;;;;;5017687;28;20057;-87